Time;durP1;ratioP1;P1;durP2;ratioP2;P2;SDS_P1;SDS_P2;PMS_P1;PMS_P2;Temp;Humidity;BMP_temperature;BMP_pressure;BME280_temperature;BME280_humidity;BME280_pressure;Samples;Min_cycle;Max_cycle;Signal;HPM_P1;HPM_P2
2021/12/08 00:02:30;;;;;;;;;34.00;28.60;;;;;5.04;52.23;98453.03;6136032;28;97503;-69
2021/12/08 00:05:36;;;;;;;;;43.40;33.20;;;;;5.06;52.32;98454.50;6162735;28;96687;-67
2021/12/08 00:08:46;;;;;;;;;41.00;31.67;;;;;5.00;52.43;98449.13;6145704;28;96878;-68
2021/12/08 00:15:10;;;;;;;;;41.60;30.60;;;;;5.21;51.82;98449.03;6160262;28;98459;-67
2021/12/08 00:18:16;;;;;;;;;37.00;31.00;;;;;5.11;51.55;98433.38;6129615;28;96656;-68
2021/12/08 00:21:25;;;;;;;;;39.20;29.00;;;;;5.18;51.82;98449.44;6159057;28;97891;-69
2021/12/08 00:24:28;;;;;;;;;34.80;30.00;;;;;5.22;51.53;98456.88;6161932;28;96774;-68
2021/12/08 00:27:31;;;;;;;;;39.00;30.00;;;;;5.13;51.61;98457.22;6162971;28;96666;-69
2021/12/08 00:30:37;;;;;;;;;38.60;30.00;;;;;5.20;51.27;98460.75;6145816;28;97514;-67
2021/12/08 00:33:40;;;;;;;;;35.50;26.00;;;;;5.23;51.43;98465.69;6160861;28;100488;-68
2021/12/08 00:36:49;;;;;;;;;36.60;30.00;;;;;5.23;51.35;98463.84;6163377;28;97505;-67
2021/12/08 00:39:53;;;;;;;;;35.00;27.00;;;;;5.29;51.26;98469.41;6163029;28;96596;-67
2021/12/08 00:42:57;;;;;;;;;37.75;30.00;;;;;5.31;51.23;98465.53;6146614;28;97364;-67
2021/12/08 00:46:00;;;;;;;;;35.20;30.40;;;;;5.27;51.48;98468.81;6138473;28;97580;-67
2021/12/08 00:49:04;;;;;;;;;44.40;30.40;;;;;5.27;51.16;98455.44;6121522;28;97128;-70
2021/12/08 00:52:10;;;;;;;;;35.20;30.20;;;;;5.32;51.15;98463.69;6092582;28;96817;-67
2021/12/08 00:55:16;;;;;;;;;40.00;30.00;;;;;5.34;51.21;98467.81;6107671;28;99848;-69
2021/12/08 00:58:20;;;;;;;;;42.20;30.60;;;;;5.28;51.29;98471.25;6138695;28;97386;-69
2021/12/08 01:01:23;;;;;;;;;33.20;28.20;;;;;5.03;51.78;98468.28;6134191;28;97086;-69
2021/12/08 01:04:26;;;;;;;;;36.00;30.00;;;;;5.12;51.62;98456.41;6120474;28;98200;-67
2021/12/08 01:07:31;;;;;;;;;33.80;28.00;;;;;4.92;52.02;98463.47;6120795;28;96661;-67
2021/12/08 01:10:40;;;;;;;;;31.00;26.60;;;;;4.88;52.02;98459.53;6137950;28;97837;-67
2021/12/08 01:13:44;;;;;;;;;39.00;31.80;;;;;4.99;52.02;98469.66;6125559;28;97479;-67
2021/12/08 01:16:48;;;;;;;;;39.50;31.50;;;;;5.06;51.92;98472.38;6118679;28;97396;-67
2021/12/08 01:19:51;;;;;;;;;38.20;29.00;;;;;5.04;51.85;98463.72;6138170;28;96545;-67
2021/12/08 01:22:56;;;;;;;;;39.00;28.60;;;;;5.08;51.95;98451.66;6132276;28;97039;-67
2021/12/08 01:26:00;;;;;;;;;33.80;30.00;;;;;5.02;51.76;98441.75;6137165;28;97022;-69
2021/12/08 01:29:07;;;;;;;;;40.40;31.00;;;;;5.06;51.93;98459.03;6120313;28;96974;-67
2021/12/08 01:32:10;;;;;;;;;36.60;28.80;;;;;5.08;51.81;98465.00;6129534;28;97498;-68
2021/12/08 01:35:16;;;;;;;;;35.60;30.00;;;;;5.08;51.70;98457.00;6128206;28;96381;-67
2021/12/08 01:38:22;;;;;;;;;36.75;28.00;;;;;5.15;51.42;98463.19;6112571;28;97839;-68
2021/12/08 01:41:25;;;;;;;;;34.80;29.40;;;;;5.13;51.55;98458.03;6127775;28;96718;-67
2021/12/08 01:47:50;;;;;;;;;42.50;31.00;;;;;5.08;51.63;98462.34;6127855;28;97669;-69
2021/12/08 01:50:56;;;;;;;;;40.00;30.40;;;;;4.85;51.40;98427.88;6127814;28;96564;-67
2021/12/08 01:54:05;;;;;;;;;37.80;30.00;;;;;5.04;51.65;98458.38;6137028;28;97712;-67
2021/12/08 01:57:09;;;;;;;;;35.00;29.00;;;;;5.10;51.95;98447.75;6162335;28;97519;-67
2021/12/08 02:00:17;;;;;;;;;38.00;29.60;;;;;5.17;51.53;98447.78;6162171;28;97519;-68
2021/12/08 02:03:22;;;;;;;;;31.25;26.50;;;;;5.20;51.37;98442.03;6141631;28;96666;-69
2021/12/08 02:06:26;;;;;;;;;39.20;30.00;;;;;5.20;51.46;98448.22;6138506;28;96491;-67
2021/12/08 02:09:30;;;;;;;;;35.75;28.75;;;;;5.07;50.96;98434.78;6137924;28;96868;-68
2021/12/08 02:12:37;;;;;;;;;39.00;29.75;;;;;5.12;51.37;98440.38;6108564;28;99392;-68
2021/12/08 02:15:41;;;;;;;;;33.20;27.00;;;;;5.08;51.39;98441.75;6131835;28;97507;-67
2021/12/08 02:18:48;;;;;;;;;31.20;26.60;;;;;4.71;51.93;98432.31;6104930;28;97069;-66
2021/12/08 02:21:53;;;;;;;;;36.60;30.00;;;;;4.75;51.93;98422.88;6127070;28;98208;-68
2021/12/08 02:24:56;;;;;;;;;37.25;27.75;;;;;4.77;51.96;98428.88;6140010;28;96734;-67
2021/12/08 02:28:02;;;;;;;;;27.60;25.40;;;;;4.94;51.77;98423.19;6127810;28;98139;-68
2021/12/08 02:31:10;;;;;;;;;35.50;26.25;;;;;5.00;51.66;98403.69;6117530;28;99585;-69
2021/12/08 02:47:52;;;;;;;;;34.40;29.40;;;;;4.92;51.36;98402.03;6139794;28;97726;-67
2021/12/08 02:50:57;;;;;;;;;37.00;27.60;;;;;4.82;51.57;98398.06;6139797;28;97451;-67
2021/12/08 02:54:01;;;;;;;;;36.20;30.00;;;;;4.87;51.49;98417.00;6131891;28;97971;-67
2021/12/08 02:57:05;;;;;;;;;34.50;27.75;;;;;4.89;51.57;98406.97;6141411;28;97613;-66
2021/12/08 03:00:12;;;;;;;;;32.75;28.25;;;;;4.81;51.70;98399.91;6139498;28;96844;-66
2021/12/08 03:03:16;;;;;;;;;34.60;29.00;;;;;4.67;51.59;98399.00;6144776;28;97462;-68
2021/12/08 03:06:20;;;;;;;;;34.00;28.00;;;;;4.68;51.80;98384.66;6147568;28;96828;-68
2021/12/08 03:09:25;;;;;;;;;38.80;27.00;;;;;4.64;52.02;98383.38;6141370;28;96557;-66
2021/12/08 03:12:29;;;;;;;;;32.60;25.60;;;;;4.57;52.13;98371.84;6125852;28;97459;-67
2021/12/08 03:15:32;;;;;;;;;36.40;30.00;;;;;4.56;52.10;98369.34;6150740;28;96989;-68
2021/12/08 03:18:38;;;;;;;;;34.20;28.00;;;;;4.59;51.73;98358.31;6140899;28;97112;-66
2021/12/08 03:21:42;;;;;;;;;31.40;27.60;;;;;4.60;52.22;98360.75;6164872;28;96756;-68
2021/12/08 03:24:48;;;;;;;;;33.50;28.50;;;;;4.57;52.15;98365.69;6150068;28;97466;-66
2021/12/08 03:28:03;;;;;;;;;30.00;28.00;;;;;4.43;51.96;98367.44;6138426;28;96835;-67
2021/12/08 03:31:10;;;;;;;;;34.00;28.00;;;;;4.28;52.46;98364.06;6136566;28;96881;-66
2021/12/08 03:34:14;;;;;;;;;29.00;25.00;;;;;4.26;52.42;98374.91;6132415;28;97372;-66
2021/12/08 03:37:20;;;;;;;;;30.80;26.20;;;;;4.34;52.59;98381.97;6123771;28;97746;-68
2021/12/08 03:40:28;;;;;;;;;31.25;27.00;;;;;4.37;52.18;98376.22;6139303;28;96610;-68
2021/12/08 03:43:32;;;;;;;;;26.40;23.00;;;;;4.31;52.11;98359.13;6127748;28;97695;-67
2021/12/08 03:46:40;;;;;;;;;34.75;29.75;;;;;4.37;52.22;98370.88;6136388;28;97174;-67
2021/12/08 03:49:47;;;;;;;;;32.40;27.00;;;;;4.39;51.99;98368.03;6120158;28;96362;-67
2021/12/08 03:52:50;;;;;;;;;34.60;28.40;;;;;4.43;52.30;98362.09;6119294;28;96650;-67
2021/12/08 03:55:55;;;;;;;;;35.00;29.00;;;;;4.44;51.75;98362.94;6136967;28;97636;-67
2021/12/08 03:58:58;;;;;;;;;29.80;26.60;;;;;4.43;51.75;98342.59;6130601;28;97435;-67
2021/12/08 04:02:02;;;;;;;;;30.50;25.50;;;;;4.45;51.69;98348.56;6117245;28;98586;-68
2021/12/08 04:05:07;;;;;;;;;29.40;24.00;;;;;4.40;52.15;98335.00;6142984;28;97394;-67
2021/12/08 04:08:16;;;;;;;;;28.00;24.40;;;;;4.31;51.90;98337.78;6139798;28;97883;-67
2021/12/08 04:11:21;;;;;;;;;27.25;24.00;;;;;4.35;51.75;98319.53;6116437;28;96810;-67
2021/12/08 04:14:28;;;;;;;;;29.20;27.20;;;;;4.36;52.07;98316.69;6116277;28;97457;-67
2021/12/08 04:17:36;;;;;;;;;24.60;20.00;;;;;4.01;52.07;98295.53;6140109;28;97168;-67
2021/12/08 04:20:43;;;;;;;;;30.60;26.00;;;;;4.24;51.82;98314.78;6121761;28;98113;-68
2021/12/08 04:23:47;;;;;;;;;30.00;27.00;;;;;4.20;51.84;98308.19;6149998;28;96765;-68
2021/12/08 04:26:55;;;;;;;;;29.25;26.25;;;;;4.35;51.53;98308.88;6146372;28;96475;-67
2021/12/08 04:29:59;;;;;;;;;27.40;24.00;;;;;4.35;51.37;98300.84;6123703;28;97218;-67
2021/12/08 04:33:03;;;;;;;;;30.20;25.20;;;;;4.33;51.58;98290.41;6138506;28;97484;-67
2021/12/08 04:36:10;;;;;;;;;27.60;24.00;;;;;4.23;52.14;98286.44;6139330;28;98144;-68
2021/12/08 04:39:24;;;;;;;;;31.80;27.40;;;;;4.27;51.85;98301.84;6139510;28;96525;-67
2021/12/08 04:42:42;;;;;;;;;28.80;24.00;;;;;4.14;51.88;98301.78;6113405;28;97647;-68
2021/12/08 04:45:57;;;;;;;;;31.60;27.00;;;;;4.18;51.87;98316.38;6124047;28;97373;-68
2021/12/08 04:49:21;;;;;;;;;27.60;24.00;;;;;4.20;51.57;98327.66;6134191;28;97010;-67
2021/12/08 04:52:33;;;;;;;;;28.60;24.00;;;;;4.27;51.62;98322.38;6126330;28;97553;-67
2021/12/08 05:08:59;;;;;;;;;29.67;25.33;;;;;4.38;51.22;98369.88;6117934;28;97176;-67
2021/12/08 05:12:05;;;;;;;;;30.40;25.00;;;;;4.39;50.95;98357.34;6135004;28;97393;-67
2021/12/08 05:15:16;;;;;;;;;28.00;22.60;;;;;4.30;50.87;98354.03;6138079;28;96457;-67
2021/12/08 05:18:22;;;;;;;;;34.40;26.40;;;;;4.25;51.06;98353.78;6129293;28;97511;-67
2021/12/08 05:21:29;;;;;;;;;33.60;24.60;;;;;4.31;51.21;98358.31;6126495;28;97995;-67
2021/12/08 05:24:36;;;;;;;;;26.20;23.00;;;;;4.33;50.99;98359.78;6135600;28;97393;-67
2021/12/08 05:27:46;;;;;;;;;27.00;23.00;;;;;4.27;50.78;98365.88;6135791;28;97028;-68
2021/12/08 05:30:55;;;;;;;;;28.00;22.60;;;;;4.36;50.61;98361.22;6135975;28;98460;-68
2021/12/08 05:34:01;;;;;;;;;26.00;23.00;;;;;4.38;50.54;98359.19;6126052;28;97842;-68
2021/12/08 05:37:05;;;;;;;;;33.50;24.00;;;;;4.47;50.66;98354.53;6136989;28;98094;-68
2021/12/08 05:40:14;;;;;;;;;30.20;22.60;;;;;4.51;50.53;98350.44;6135808;28;97773;-67
2021/12/08 05:43:18;;;;;;;;;26.80;22.00;;;;;4.56;50.39;98348.00;6138103;28;97175;-67
2021/12/08 05:46:26;;;;;;;;;32.60;23.60;;;;;4.59;50.36;98345.78;6144897;28;99032;-68
2021/12/08 05:49:30;;;;;;;;;28.67;21.67;;;;;4.66;49.91;98348.47;6162483;28;97363;-67
2021/12/08 05:52:33;;;;;;;;;33.00;24.20;;;;;4.63;50.30;98340.88;6163721;28;97447;-67
2021/12/08 05:55:37;;;;;;;;;27.60;25.00;;;;;4.62;50.13;98331.22;6167222;28;99153;-67
2021/12/08 05:58:41;;;;;;;;;31.00;24.80;;;;;4.46;49.79;98320.84;6166708;28;96641;-67
2021/12/08 06:01:52;;;;;;;;;28.33;25.33;;;;;4.61;49.76;98321.53;6156131;28;98169;-67
2021/12/08 06:04:55;;;;;;;;;29.60;25.00;;;;;4.62;49.64;98326.69;6143874;28;97516;-67
2021/12/08 06:08:00;;;;;;;;;28.20;23.00;;;;;4.56;49.81;98319.47;6146495;28;96776;-68
2021/12/08 06:11:07;;;;;;;;;29.25;24.00;;;;;4.53;49.53;98324.38;6162990;28;96658;-68
2021/12/08 06:14:10;;;;;;;;;27.60;22.60;;;;;4.44;49.44;98345.06;6160240;28;97715;-67
2021/12/08 06:17:19;;;;;;;;;22.40;20.00;;;;;4.29;49.97;98342.53;6148467;28;97606;-68
2021/12/08 06:20:23;;;;;;;;;22.00;20.25;;;;;4.00;50.68;98337.38;6166445;28;97447;-68
2021/12/08 06:23:27;;;;;;;;;24.50;20.50;;;;;4.23;49.96;98337.13;6118639;28;97957;-69
2021/12/08 06:26:30;;;;;;;;;25.00;20.00;;;;;4.32;49.79;98320.78;6124423;28;98582;-67
2021/12/08 06:29:35;;;;;;;;;23.40;19.40;;;;;4.17;49.22;98327.22;6145261;28;97853;-68
2021/12/08 06:32:40;;;;;;;;;23.50;20.75;;;;;4.27;49.33;98322.38;6134351;28;98399;-68
2021/12/08 06:35:47;;;;;;;;;23.60;19.20;;;;;4.26;49.44;98318.03;6160584;28;98217;-67
2021/12/08 06:38:51;;;;;;;;;23.00;19.00;;;;;4.18;49.60;98310.22;6165537;28;97426;-68
2021/12/08 06:41:57;;;;;;;;;22.00;18.00;;;;;3.75;49.81;98283.63;6166195;28;98360;-67
2021/12/08 06:45:03;;;;;;;;;23.00;19.40;;;;;3.92;50.32;98289.50;6161379;28;97430;-67
2021/12/08 06:48:12;;;;;;;;;24.00;19.00;;;;;4.06;49.89;98299.25;6164064;28;98406;-68
2021/12/08 06:51:19;;;;;;;;;23.00;19.60;;;;;3.93;49.75;98280.47;6138005;28;97940;-67
2021/12/08 06:54:27;;;;;;;;;23.00;18.00;;;;;4.05;49.97;98275.44;6139540;28;96896;-68
2021/12/08 06:57:37;;;;;;;;;25.00;19.00;;;;;3.96;49.93;98288.09;6139690;28;96669;-67
2021/12/08 07:00:50;;;;;;;;;25.00;20.00;;;;;3.92;49.68;98281.50;6139546;28;96571;-68
2021/12/08 07:04:10;;;;;;;;;25.00;21.00;;;;;3.92;50.25;98282.31;6152947;28;96687;-68
2021/12/08 07:07:17;;;;;;;;;26.40;20.60;;;;;4.01;50.20;98282.19;6164265;28;97431;-68
2021/12/08 07:10:25;;;;;;;;;28.00;21.75;;;;;4.12;49.57;98289.63;6165646;28;98154;-67
2021/12/08 07:13:32;;;;;;;;;22.00;20.00;;;;;4.15;49.94;98294.59;6138431;28;96871;-68
2021/12/08 07:16:58;;;;;;;;;27.00;22.00;;;;;4.22;49.34;98296.28;6141276;28;97331;-67
2021/12/08 07:20:25;;;;;;;;;25.40;20.00;;;;;4.11;49.49;98288.81;6141361;28;97488;-66
2021/12/08 07:23:36;;;;;;;;;25.00;18.75;;;;;4.00;49.66;98278.69;6132094;28;97457;-67
2021/12/08 07:26:41;;;;;;;;;23.00;20.00;;;;;3.92;49.93;98278.81;6141221;28;96976;-68
2021/12/08 07:29:47;;;;;;;;;23.60;20.00;;;;;3.95;49.84;98296.31;6140545;28;97230;-67
2021/12/08 07:32:51;;;;;;;;;29.00;23.60;;;;;3.86;50.19;98298.28;6143666;28;99795;-67
2021/12/08 07:35:59;;;;;;;;;24.20;21.00;;;;;3.86;49.81;98280.44;6164556;28;97289;-67
2021/12/08 07:39:07;;;;;;;;;22.00;18.25;;;;;3.92;49.98;98277.00;6163671;28;97474;-68
2021/12/08 07:42:17;;;;;;;;;31.60;26.00;;;;;3.89;49.95;98281.91;6157678;28;97673;-67
2021/12/08 07:45:30;;;;;;;;;26.00;22.00;;;;;4.08;49.92;98273.22;6114634;28;97778;-68
2021/12/08 07:48:38;;;;;;;;;28.40;25.40;;;;;3.95;49.62;98280.31;6116360;28;96485;-68
2021/12/08 07:51:48;;;;;;;;;25.00;21.40;;;;;4.05;49.72;98276.28;6121626;28;97797;-69
2021/12/08 07:54:53;;;;;;;;;32.50;25.00;;;;;4.10;49.63;98281.84;6138766;28;97600;-68
2021/12/08 07:57:58;;;;;;;;;30.75;25.00;;;;;4.13;49.82;98285.97;6138878;28;97315;-67
2021/12/08 08:01:06;;;;;;;;;27.00;23.40;;;;;4.17;49.11;98287.22;6134320;28;96800;-68
2021/12/08 08:04:13;;;;;;;;;26.00;21.60;;;;;4.11;48.81;98296.81;6148857;28;96401;-68
2021/12/08 08:07:19;;;;;;;;;28.40;23.60;;;;;4.08;49.21;98293.72;6163446;28;97202;-67
2021/12/08 08:10:23;;;;;;;;;27.40;22.00;;;;;4.16;49.40;98305.06;6138093;28;96665;-68
2021/12/08 08:13:28;;;;;;;;;27.00;22.00;;;;;4.10;50.13;98307.69;6129615;28;97782;-67
2021/12/08 08:16:36;;;;;;;;;25.60;23.00;;;;;4.12;50.28;98297.63;6139094;28;97415;-66
2021/12/08 08:19:45;;;;;;;;;24.50;22.25;;;;;4.14;49.64;98291.09;6134127;28;97793;-67
2021/12/08 08:22:50;;;;;;;;;30.80;25.80;;;;;4.08;49.78;98307.06;6126288;28;97419;-67
2021/12/08 08:25:56;;;;;;;;;27.00;22.00;;;;;4.15;49.47;98313.28;6137052;28;96530;-67
2021/12/08 08:29:00;;;;;;;;;27.80;22.40;;;;;3.89;49.19;98308.56;6139610;28;96650;-68
2021/12/08 08:32:07;;;;;;;;;23.50;21.50;;;;;3.83;49.76;98317.31;6137721;28;97506;-68
2021/12/08 08:35:16;;;;;;;;;27.00;23.00;;;;;3.90;49.53;98316.38;6135198;28;97366;-68
2021/12/08 08:38:25;;;;;;;;;29.00;24.00;;;;;3.77;49.90;98313.59;6138856;28;96418;-67
2021/12/08 08:41:32;;;;;;;;;24.25;22.00;;;;;3.65;49.75;98322.31;6133634;28;97443;-67
2021/12/08 08:44:40;;;;;;;;;27.00;23.00;;;;;3.85;50.14;98318.78;6135433;28;96771;-67
2021/12/08 08:47:47;;;;;;;;;29.00;24.00;;;;;3.82;49.96;98297.84;6121518;28;99658;-67
2021/12/08 08:50:55;;;;;;;;;30.00;24.40;;;;;3.95;49.92;98306.97;6122019;28;96471;-70
2021/12/08 08:54:04;;;;;;;;;26.40;22.00;;;;;3.78;49.97;98293.09;6149449;28;97774;-67
2021/12/08 08:57:11;;;;;;;;;31.00;25.00;;;;;3.68;50.14;98303.25;6164162;28;96772;-67
2021/12/08 09:00:19;;;;;;;;;29.60;24.60;;;;;3.85;50.02;98308.13;6163723;28;97410;-68
2021/12/08 09:03:28;;;;;;;;;26.75;22.00;;;;;3.89;49.83;98312.06;6132370;28;98441;-68
2021/12/08 09:06:35;;;;;;;;;27.00;23.00;;;;;3.98;49.86;98312.72;6120825;28;99534;-67
2021/12/08 09:09:44;;;;;;;;;25.20;18.60;;;;;4.15;49.60;98310.59;6120827;28;98038;-68
2021/12/08 09:12:50;;;;;;;;;26.60;23.60;;;;;4.27;49.02;98309.84;6127949;28;96906;-67
2021/12/08 09:15:58;;;;;;;;;22.60;20.60;;;;;4.28;48.72;98303.50;6139478;28;97475;-67
2021/12/08 09:19:09;;;;;;;;;28.00;24.20;;;;;4.25;48.58;98303.88;6138946;28;97425;-67
2021/12/08 09:22:18;;;;;;;;;27.80;24.40;;;;;4.23;49.04;98299.78;6141296;28;97409;-67
2021/12/08 09:25:30;;;;;;;;;26.20;20.20;;;;;4.23;48.90;98297.09;6162679;28;96453;-66
2021/12/08 09:28:37;;;;;;;;;27.50;24.00;;;;;4.34;49.24;98286.72;6163228;28;96429;-67
2021/12/08 09:31:44;;;;;;;;;23.75;20.00;;;;;4.16;48.43;98288.22;6155278;28;96437;-66
2021/12/08 09:34:55;;;;;;;;;29.00;23.33;;;;;4.41;48.92;98283.25;6139647;28;97559;-67
2021/12/08 09:38:05;;;;;;;;;23.60;20.60;;;;;4.43;48.72;98266.03;6104584;28;97261;-67
2021/12/08 09:41:14;;;;;;;;;28.60;23.60;;;;;4.40;48.46;98263.72;6117711;28;96724;-67
2021/12/08 09:44:22;;;;;;;;;22.80;21.00;;;;;4.40;48.78;98268.28;6148352;28;97109;-67
2021/12/08 09:47:29;;;;;;;;;26.40;21.40;;;;;4.50;48.94;98266.88;6162805;28;97013;-67
2021/12/08 09:50:32;;;;;;;;;24.00;21.00;;;;;4.58;48.56;98279.25;6128446;28;97319;-68
2021/12/08 09:53:36;;;;;;;;;20.00;18.00;;;;;4.61;48.12;98271.66;6112620;28;96961;-67
2021/12/08 09:56:42;;;;;;;;;24.80;21.00;;;;;4.57;48.27;98281.09;6138497;28;96688;-69
2021/12/08 09:59:47;;;;;;;;;22.40;19.20;;;;;4.64;48.37;98271.25;6137806;28;97249;-68
2021/12/08 10:02:57;;;;;;;;;20.80;18.60;;;;;4.72;48.14;98265.75;6132407;28;96818;-68
2021/12/08 10:06:01;;;;;;;;;21.40;20.00;;;;;4.42;48.24;98242.19;6138119;28;97262;-67
2021/12/08 10:09:05;;;;;;;;;28.80;22.00;;;;;4.68;48.24;98253.00;6102599;28;97511;-68
2021/12/08 10:12:10;;;;;;;;;22.40;20.00;;;;;4.67;48.56;98254.00;6128353;28;98302;-68
2021/12/08 10:15:17;;;;;;;;;27.33;23.00;;;;;4.76;48.14;98248.28;6143650;28;98347;-68
2021/12/08 10:18:21;;;;;;;;;26.00;21.00;;;;;4.78;48.02;98254.28;6136575;28;97042;-67
2021/12/08 10:21:33;;;;;;;;;25.60;20.60;;;;;4.86;48.02;98255.09;6113643;28;96626;-67
2021/12/08 10:24:36;;;;;;;;;25.00;20.00;;;;;5.00;47.82;98246.09;6111390;28;97537;-67
2021/12/08 10:28:05;;;;;;;;;28.00;20.00;;;;;5.09;47.26;98248.38;6137950;28;96459;-67
2021/12/08 10:31:13;;;;;;;;;23.20;19.40;;;;;5.14;47.42;98253.13;6134393;28;97141;-68
2021/12/08 10:34:24;;;;;;;;;23.60;21.00;;;;;5.03;47.32;98249.22;6115925;28;97703;-68
2021/12/08 10:37:27;;;;;;;;;27.40;22.40;;;;;4.96;47.56;98245.69;6135479;28;96730;-67
2021/12/08 10:40:31;;;;;;;;;25.00;21.00;;;;;4.89;47.72;98242.16;6127140;28;98219;-66
2021/12/08 10:43:36;;;;;;;;;25.00;20.25;;;;;4.92;48.01;98240.94;6115235;28;97954;-67
2021/12/08 10:46:41;;;;;;;;;20.00;18.00;;;;;4.83;47.63;98234.16;6110533;28;96684;-69
2021/12/08 10:56:37;;;;;;;;;24.50;20.75;;;;;4.78;47.92;98216.06;6119093;28;96608;-68
2021/12/08 11:00:00;;;;;;;;;23.00;19.00;;;;;4.89;47.09;98198.63;6099733;28;97783;-67
2021/12/08 11:03:06;;;;;;;;;21.00;19.60;;;;;4.98;47.16;98213.44;6141812;28;97353;-68
2021/12/08 11:06:13;;;;;;;;;23.00;18.00;;;;;4.90;47.45;98193.06;6128733;28;98327;-68
2021/12/08 11:09:19;;;;;;;;;17.00;15.00;;;;;4.79;47.14;98212.34;6113263;28;97922;-68
2021/12/08 11:12:22;;;;;;;;;17.75;15.75;;;;;4.65;47.74;98210.66;6137310;28;98076;-69
2021/12/08 11:15:29;;;;;;;;;22.00;18.40;;;;;4.66;47.53;98196.28;6147382;28;96704;-68
2021/12/08 11:18:38;;;;;;;;;22.00;19.40;;;;;4.48;47.64;98196.03;6165637;28;97519;-68
2021/12/08 11:21:46;;;;;;;;;20.20;17.00;;;;;4.51;47.90;98185.78;6151916;28;97496;-69
2021/12/08 11:24:57;;;;;;;;;19.80;16.80;;;;;4.40;48.42;98188.22;6120427;28;97785;-68
2021/12/08 11:28:19;;;;;;;;;15.20;14.00;;;;;4.25;48.31;98191.81;6141072;28;97098;-67
2021/12/08 11:31:24;;;;;;;;;16.00;14.00;;;;;4.34;48.90;98185.31;6134819;28;97450;-68
2021/12/08 11:34:31;;;;;;;;;20.75;19.00;;;;;4.46;48.68;98182.88;6116703;28;99434;-68
2021/12/08 11:37:35;;;;;;;;;23.60;21.00;;;;;4.51;48.29;98180.44;6140660;28;97591;-68
2021/12/08 11:40:40;;;;;;;;;24.00;21.00;;;;;4.57;48.39;98165.47;6123135;28;97345;-67
2021/12/08 11:43:51;;;;;;;;;26.80;22.20;;;;;4.65;48.28;98166.09;6136378;28;97566;-68
2021/12/08 11:46:58;;;;;;;;;22.00;19.00;;;;;4.61;48.00;98164.88;6160944;28;96670;-67
2021/12/08 11:50:09;;;;;;;;;23.00;20.00;;;;;4.29;48.53;98163.75;6160934;28;97166;-68
2021/12/08 11:53:12;;;;;;;;;24.00;20.20;;;;;4.10;49.60;98163.66;6151283;28;96846;-67
2021/12/08 11:56:36;;;;;;;;;20.25;17.00;;;;;3.91;49.64;98167.84;6143328;28;97573;-67
2021/12/08 11:59:57;;;;;;;;;16.50;16.50;;;;;3.56;49.72;98168.88;6163217;28;96669;-69
2021/12/08 12:03:05;;;;;;;;;19.75;17.75;;;;;3.47;50.60;98174.34;6151945;28;98600;-69
2021/12/08 12:06:09;;;;;;;;;18.00;15.00;;;;;3.49;50.19;98166.97;6146533;28;97452;-69
2021/12/08 12:09:12;;;;;;;;;15.00;15.00;;;;;3.72;50.62;98165.88;6146352;28;96617;-67
2021/12/08 12:12:27;;;;;;;;;19.00;17.00;;;;;3.50;50.53;98157.16;6141567;28;97761;-67
2021/12/08 12:15:32;;;;;;;;;17.60;16.00;;;;;3.38;50.82;98154.19;6175515;28;97413;-67
2021/12/08 12:18:36;;;;;;;;;20.60;18.00;;;;;3.20;51.75;98158.34;6163210;28;96826;-67
2021/12/08 12:21:58;;;;;;;;;21.00;18.40;;;;;3.31;51.83;98150.66;6153419;28;97415;-68
2021/12/08 12:25:35;;;;;;;;;19.25;18.00;;;;;3.33;51.33;98142.47;6171157;28;97377;-68
2021/12/08 12:29:12;;;;;;;;;24.20;21.00;;;;;3.41;51.69;98137.00;6127191;28;97388;-67
2021/12/08 12:32:23;;;;;;;;;23.00;19.00;;;;;3.52;51.14;98144.44;6131433;28;100261;-69
2021/12/08 12:35:31;;;;;;;;;22.60;19.00;;;;;3.61;51.37;98145.97;6161819;28;96892;-68
2021/12/08 12:38:37;;;;;;;;;23.33;19.33;;;;;3.54;51.68;98142.41;6158360;28;97391;-67
2021/12/08 12:41:42;;;;;;;;;23.60;21.60;;;;;3.52;51.75;98149.78;6148333;28;97736;-67
2021/12/08 12:45:03;;;;;;;;;19.20;18.60;;;;;3.63;51.54;98149.22;6141210;28;97232;-67
2021/12/08 12:48:13;;;;;;;;;20.00;18.00;;;;;3.84;50.87;98148.34;6121506;28;97553;-69
2021/12/08 12:51:21;;;;;;;;;18.80;18.00;;;;;3.96;50.58;98141.41;6103513;28;99630;-69
2021/12/08 12:54:33;;;;;;;;;21.20;16.00;;;;;4.05;50.64;98150.91;6103844;28;99140;-69
2021/12/08 12:58:10;;;;;;;;;21.20;15.40;;;;;4.04;50.78;98148.44;6118504;28;97312;-68
2021/12/08 13:01:15;;;;;;;;;20.00;16.60;;;;;3.93;49.68;98155.97;6111996;28;97945;-67
2021/12/08 13:04:21;;;;;;;;;15.80;15.40;;;;;3.56;50.93;98145.72;6097290;28;96626;-70
2021/12/08 13:07:27;;;;;;;;;18.00;16.00;;;;;3.36;50.88;98126.94;6104007;28;98017;-68
2021/12/08 13:10:36;;;;;;;;;20.20;16.80;;;;;3.26;51.72;98121.13;6121081;28;98771;-68
2021/12/08 13:13:48;;;;;;;;;17.00;15.25;;;;;3.11;51.99;98131.03;6112742;28;97985;-69
2021/12/08 13:17:17;;;;;;;;;17.00;16.00;;;;;3.09;52.18;98119.75;6137597;28;96936;-68
2021/12/08 13:20:26;;;;;;;;;16.60;15.00;;;;;2.82;52.83;98102.75;6102516;28;96805;-69
2021/12/08 13:23:31;;;;;;;;;20.00;17.00;;;;;3.05;52.80;98129.13;6126490;28;98426;-68
2021/12/08 13:26:47;;;;;;;;;20.60;18.00;;;;;3.01;52.87;98136.69;6137419;28;96565;-69
2021/12/08 13:30:10;;;;;;;;;23.00;20.40;;;;;3.17;52.90;98132.94;6128315;28;97343;-70
2021/12/08 13:33:25;;;;;;;;;24.60;20.00;;;;;3.48;52.20;98122.69;6095058;28;97116;-70
2021/12/08 13:36:35;;;;;;;;;19.50;18.00;;;;;3.79;51.26;98121.44;6100377;28;96631;-67
2021/12/08 13:39:44;;;;;;;;;19.40;16.40;;;;;4.05;50.90;98120.75;6128664;28;97527;-67
2021/12/08 13:43:09;;;;;;;;;15.60;15.00;;;;;4.14;50.09;98120.38;6105952;28;97525;-70
2021/12/08 13:46:43;;;;;;;;;22.80;15.00;;;;;4.13;49.66;98120.56;6128794;28;96559;-68
2021/12/08 13:49:49;;;;;;;;;18.00;15.00;;;;;4.34;49.95;98126.63;6109791;28;97426;-67
2021/12/08 13:53:06;;;;;;;;;20.60;15.60;;;;;4.44;49.50;98134.25;6122746;28;98753;-68
2021/12/08 13:56:11;;;;;;;;;29.60;26.00;;;;;4.53;50.06;98146.38;6110108;28;97850;-69
2021/12/08 13:59:56;;;;;;;;;29.00;24.00;;;;;4.65;49.57;98142.06;6094621;28;98327;-68
2021/12/08 14:03:18;;;;;;;;;24.60;22.40;;;;;4.75;49.36;98150.50;6102636;28;97140;-67
2021/12/08 14:06:22;;;;;;;;;30.40;26.40;;;;;4.83;48.94;98151.38;6126773;28;98052;-67
2021/12/08 14:09:25;;;;;;;;;33.00;27.40;;;;;4.84;48.84;98147.69;6110148;28;97691;-71
2021/12/08 14:12:59;;;;;;;;;31.50;26.00;;;;;4.93;48.93;98155.28;6103373;28;96914;-67
2021/12/08 14:16:05;;;;;;;;;30.20;23.20;;;;;4.88;48.84;98152.41;6082189;28;97364;-69
2021/12/08 14:19:09;;;;;;;;;34.00;27.20;;;;;4.78;48.98;98152.81;6130753;28;97025;-67
2021/12/08 14:22:19;;;;;;;;;34.80;28.40;;;;;4.72;49.10;98147.44;6105973;28;98808;-70
2021/12/08 14:25:39;;;;;;;;;34.20;29.20;;;;;4.70;49.10;98150.31;6090397;28;98720;-68
2021/12/08 14:28:49;;;;;;;;;29.25;24.25;;;;;4.70;48.97;98160.97;6133231;28;96668;-70
2021/12/08 14:31:54;;;;;;;;;33.40;28.40;;;;;4.60;48.99;98149.88;6113142;28;97178;-69
2021/12/08 14:34:58;;;;;;;;;29.60;26.00;;;;;4.45;49.13;98143.88;6135754;28;97180;-69
2021/12/08 14:38:03;;;;;;;;;28.50;26.50;;;;;4.55;49.30;98156.81;6118065;28;96932;-68
2021/12/08 14:41:22;;;;;;;;;28.00;25.00;;;;;4.52;49.24;98149.22;6129318;28;97567;-69
2021/12/08 14:44:29;;;;;;;;;30.80;25.80;;;;;4.58;49.29;98130.56;6135673;28;99310;-68
2021/12/08 14:47:36;;;;;;;;;27.00;24.00;;;;;4.60;49.19;98133.03;6158108;28;98137;-70
2021/12/08 14:50:40;;;;;;;;;30.80;28.60;;;;;4.64;48.95;98132.41;6147681;28;97098;-67
2021/12/08 14:53:43;;;;;;;;;31.25;25.25;;;;;4.71;48.90;98127.09;6133778;28;97896;-68
2021/12/08 14:57:01;;;;;;;;;32.40;28.00;;;;;4.81;48.66;98138.22;6164310;28;97504;-69
2021/12/08 15:00:11;;;;;;;;;28.40;25.40;;;;;4.89;48.76;98134.53;6165364;28;97401;-66
2021/12/08 15:03:16;;;;;;;;;33.00;29.50;;;;;4.75;48.57;98136.34;6164385;28;97472;-70
2021/12/08 15:06:22;;;;;;;;;32.25;29.25;;;;;4.72;48.57;98132.25;6143309;28;97342;-67
2021/12/08 15:09:26;;;;;;;;;35.00;29.00;;;;;4.56;49.02;98118.44;6153911;28;96929;-68
2021/12/08 15:12:30;;;;;;;;;29.80;26.40;;;;;4.57;49.19;98126.25;6136355;28;98334;-68
2021/12/08 15:15:35;;;;;;;;;30.00;27.00;;;;;4.55;49.10;98122.94;6164088;28;97362;-69